sensor_id;sensor_type;location;lat;lon;timestamp;P1;durP1;ratioP1;P2;durP2;ratioP2
14760;SDS011;7472;45.396;5.272;2022-09-01T00:00:04;2.97;;;2.70;;
14760;SDS011;7472;45.396;5.272;2022-09-01T00:02:33;3.72;;;2.40;;
14760;SDS011;7472;45.396;5.272;2022-09-01T00:05:01;2.58;;;2.38;;
14760;SDS011;7472;45.396;5.272;2022-09-01T00:07:29;4.72;;;2.40;;
14760;SDS011;7472;45.396;5.272;2022-09-01T00:09:58;4.30;;;2.80;;
14760;SDS011;7472;45.396;5.272;2022-09-01T00:12:26;3.60;;;2.50;;
14760;SDS011;7472;45.396;5.272;2022-09-01T00:14:53;3.03;;;2.67;;
14760;SDS011;7472;45.396;5.272;2022-09-01T00:17:21;3.80;;;2.75;;
14760;SDS011;7472;45.396;5.272;2022-09-01T00:19:50;2.75;;;2.55;;
14760;SDS011;7472;45.396;5.272;2022-09-01T00:22:18;2.40;;;2.25;;
14760;SDS011;7472;45.396;5.272;2022-09-01T00:24:45;5.20;;;3.42;;
14760;SDS011;7472;45.396;5.272;2022-09-01T00:27:12;4.00;;;3.70;;
14760;SDS011;7472;45.396;5.272;2022-09-01T00:29:40;4.57;;;3.90;;
14760;SDS011;7472;45.396;5.272;2022-09-01T00:32:07;5.40;;;3.30;;
14760;SDS011;7472;45.396;5.272;2022-09-01T00:34:35;4.32;;;3.92;;
14760;SDS011;7472;45.396;5.272;2022-09-01T00:37:03;3.13;;;2.92;;
14760;SDS011;7472;45.396;5.272;2022-09-01T00:39:31;3.05;;;2.85;;
14760;SDS011;7472;45.396;5.272;2022-09-01T00:41:58;3.30;;;2.95;;
14760;SDS011;7472;45.396;5.272;2022-09-01T00:44:26;3.33;;;3.03;;
14760;SDS011;7472;45.396;5.272;2022-09-01T00:46:54;3.30;;;3.10;;
14760;SDS011;7472;45.396;5.272;2022-09-01T00:49:23;3.80;;;3.40;;
14760;SDS011;7472;45.396;5.272;2022-09-01T00:51:57;4.22;;;2.80;;
14760;SDS011;7472;45.396;5.272;2022-09-01T00:54:28;3.85;;;3.35;;
14760;SDS011;7472;45.396;5.272;2022-09-01T00:56:56;7.05;;;3.78;;
14760;SDS011;7472;45.396;5.272;2022-09-01T00:59:24;4.00;;;3.30;;
14760;SDS011;7472;45.396;5.272;2022-09-01T01:01:52;5.15;;;3.50;;
14760;SDS011;7472;45.396;5.272;2022-09-01T01:04:19;3.20;;;2.97;;
14760;SDS011;7472;45.396;5.272;2022-09-01T01:06:48;5.80;;;2.97;;
14760;SDS011;7472;45.396;5.272;2022-09-01T01:09:23;7.05;;;3.38;;
14760;SDS011;7472;45.396;5.272;2022-09-01T01:11:52;4.40;;;3.10;;
14760;SDS011;7472;45.396;5.272;2022-09-01T01:14:24;3.30;;;3.00;;
14760;SDS011;7472;45.396;5.272;2022-09-01T01:16:56;3.13;;;2.70;;
14760;SDS011;7472;45.396;5.272;2022-09-01T01:19:26;4.60;;;3.58;;
14760;SDS011;7472;45.396;5.272;2022-09-01T01:22:27;4.47;;;3.22;;
14760;SDS011;7472;45.396;5.272;2022-09-01T01:25:14;6.13;;;2.80;;
14760;SDS011;7472;45.396;5.272;2022-09-01T01:27:43;3.30;;;3.08;;
14760;SDS011;7472;45.396;5.272;2022-09-01T01:30:11;3.17;;;2.83;;
14760;SDS011;7472;45.396;5.272;2022-09-01T01:32:39;3.67;;;3.38;;
14760;SDS011;7472;45.396;5.272;2022-09-01T01:35:07;3.50;;;3.20;;
14760;SDS011;7472;45.396;5.272;2022-09-01T01:37:36;3.78;;;3.10;;
14760;SDS011;7472;45.396;5.272;2022-09-01T01:40:04;4.03;;;3.45;;
14760;SDS011;7472;45.396;5.272;2022-09-01T01:42:41;3.45;;;3.15;;
14760;SDS011;7472;45.396;5.272;2022-09-01T01:45:10;3.45;;;3.15;;
14760;SDS011;7472;45.396;5.272;2022-09-01T01:47:41;3.40;;;3.05;;
14760;SDS011;7472;45.396;5.272;2022-09-01T01:50:10;3.85;;;3.42;;
14760;SDS011;7472;45.396;5.272;2022-09-01T01:52:40;3.60;;;3.30;;
14760;SDS011;7472;45.396;5.272;2022-09-01T01:55:09;4.68;;;2.83;;
14760;SDS011;7472;45.396;5.272;2022-09-01T01:57:37;4.05;;;3.60;;
14760;SDS011;7472;45.396;5.272;2022-09-01T02:00:16;4.97;;;3.60;;
14760;SDS011;7472;45.396;5.272;2022-09-01T02:02:45;4.65;;;3.55;;
14760;SDS011;7472;45.396;5.272;2022-09-01T02:05:17;2.85;;;2.65;;
14760;SDS011;7472;45.396;5.272;2022-09-01T02:07:49;3.80;;;3.50;;
14760;SDS011;7472;45.396;5.272;2022-09-01T02:10:20;6.70;;;3.38;;
14760;SDS011;7472;45.396;5.272;2022-09-01T02:12:48;3.58;;;3.28;;
14760;SDS011;7472;45.396;5.272;2022-09-01T02:15:17;3.28;;;3.08;;
14760;SDS011;7472;45.396;5.272;2022-09-01T02:17:44;4.18;;;3.78;;
14760;SDS011;7472;45.396;5.272;2022-09-01T02:20:13;3.60;;;3.28;;
14760;SDS011;7472;45.396;5.272;2022-09-01T02:22:41;3.83;;;3.53;;
14760;SDS011;7472;45.396;5.272;2022-09-01T02:25:10;4.22;;;3.50;;
14760;SDS011;7472;45.396;5.272;2022-09-01T02:27:40;4.32;;;2.95;;
14760;SDS011;7472;45.396;5.272;2022-09-01T02:30:08;3.75;;;3.45;;
14760;SDS011;7472;45.396;5.272;2022-09-01T02:32:38;3.65;;;3.35;;
14760;SDS011;7472;45.396;5.272;2022-09-01T02:35:07;4.20;;;3.83;;
14760;SDS011;7472;45.396;5.272;2022-09-01T02:37:36;4.10;;;3.67;;
14760;SDS011;7472;45.396;5.272;2022-09-01T02:40:05;3.58;;;3.28;;
14760;SDS011;7472;45.396;5.272;2022-09-01T02:42:34;4.38;;;4.07;;
14760;SDS011;7472;45.396;5.272;2022-09-01T02:45:05;4.40;;;3.80;;
14760;SDS011;7472;45.396;5.272;2022-09-01T02:47:43;4.20;;;3.90;;
14760;SDS011;7472;45.396;5.272;2022-09-01T02:50:11;4.90;;;4.50;;
14760;SDS011;7472;45.396;5.272;2022-09-01T02:52:41;5.10;;;4.32;;
14760;SDS011;7472;45.396;5.272;2022-09-01T02:55:09;4.40;;;4.03;;
14760;SDS011;7472;45.396;5.272;2022-09-01T02:57:36;4.55;;;4.18;;
14760;SDS011;7472;45.396;5.272;2022-09-01T03:00:05;5.20;;;4.70;;
14760;SDS011;7472;45.396;5.272;2022-09-01T03:02:47;5.15;;;4.65;;
14760;SDS011;7472;45.396;5.272;2022-09-01T03:05:16;5.15;;;4.40;;
14760;SDS011;7472;45.396;5.272;2022-09-01T03:07:50;6.60;;;4.28;;
14760;SDS011;7472;45.396;5.272;2022-09-01T03:10:22;4.85;;;4.45;;
14760;SDS011;7472;45.396;5.272;2022-09-01T03:12:52;4.85;;;4.40;;
14760;SDS011;7472;45.396;5.272;2022-09-01T03:15:20;5.07;;;4.68;;
14760;SDS011;7472;45.396;5.272;2022-09-01T03:17:49;5.00;;;4.40;;
14760;SDS011;7472;45.396;5.272;2022-09-01T03:20:16;5.47;;;4.93;;
14760;SDS011;7472;45.396;5.272;2022-09-01T03:22:46;5.18;;;4.78;;
14760;SDS011;7472;45.396;5.272;2022-09-01T03:25:13;6.70;;;4.97;;
14760;SDS011;7472;45.396;5.272;2022-09-01T03:27:41;4.93;;;4.40;;
14760;SDS011;7472;45.396;5.272;2022-09-01T03:30:09;4.78;;;4.38;;
14760;SDS011;7472;45.396;5.272;2022-09-01T03:32:36;5.57;;;5.07;;
14760;SDS011;7472;45.396;5.272;2022-09-01T03:35:06;5.65;;;4.93;;
14760;SDS011;7472;45.396;5.272;2022-09-01T03:37:33;4.78;;;4.38;;
14760;SDS011;7472;45.396;5.272;2022-09-01T03:40:02;5.20;;;4.70;;
14760;SDS011;7472;45.396;5.272;2022-09-01T03:42:30;5.22;;;4.72;;
14760;SDS011;7472;45.396;5.272;2022-09-01T03:44:57;7.25;;;6.13;;
14760;SDS011;7472;45.396;5.272;2022-09-01T03:47:33;5.78;;;5.20;;
14760;SDS011;7472;45.396;5.272;2022-09-01T03:50:07;6.05;;;5.20;;
14760;SDS011;7472;45.396;5.272;2022-09-01T03:52:37;5.53;;;4.88;;
14760;SDS011;7472;45.396;5.272;2022-09-01T03:55:06;6.15;;;5.50;;
14760;SDS011;7472;45.396;5.272;2022-09-01T03:57:34;5.70;;;5.20;;
14760;SDS011;7472;45.396;5.272;2022-09-01T04:00:07;4.78;;;4.38;;
14760;SDS011;7472;45.396;5.272;2022-09-01T04:02:44;5.38;;;4.93;;
14760;SDS011;7472;45.396;5.272;2022-09-01T04:05:16;6.80;;;5.07;;
14760;SDS011;7472;45.396;5.272;2022-09-01T04:07:46;5.75;;;5.25;;
14760;SDS011;7472;45.396;5.272;2022-09-01T04:10:14;5.43;;;4.93;;
14760;SDS011;7472;45.396;5.272;2022-09-01T04:12:42;5.78;;;4.90;;
14760;SDS011;7472;45.396;5.272;2022-09-01T04:15:09;7.78;;;5.40;;
14760;SDS011;7472;45.396;5.272;2022-09-01T04:17:38;5.28;;;4.82;;
14760;SDS011;7472;45.396;5.272;2022-09-01T04:20:24;6.45;;;4.57;;
14760;SDS011;7472;45.396;5.272;2022-09-01T04:22:51;5.85;;;5.22;;
14760;SDS011;7472;45.396;5.272;2022-09-01T04:25:19;7.18;;;4.40;;
14760;SDS011;7472;45.396;5.272;2022-09-01T04:27:49;5.68;;;5.18;;
14760;SDS011;7472;45.396;5.272;2022-09-01T04:30:18;5.25;;;4.85;;
14760;SDS011;7472;45.396;5.272;2022-09-01T04:32:45;6.45;;;5.18;;
14760;SDS011;7472;45.396;5.272;2022-09-01T04:35:12;6.20;;;5.18;;
14760;SDS011;7472;45.396;5.272;2022-09-01T04:37:42;6.68;;;6.07;;
14760;SDS011;7472;45.396;5.272;2022-09-01T04:40:10;6.15;;;5.47;;
14760;SDS011;7472;45.396;5.272;2022-09-01T04:42:39;5.63;;;5.13;;
14760;SDS011;7472;45.396;5.272;2022-09-01T04:45:07;6.00;;;5.50;;
14760;SDS011;7472;45.396;5.272;2022-09-01T04:47:38;6.10;;;5.60;;
14760;SDS011;7472;45.396;5.272;2022-09-01T04:50:08;7.20;;;5.57;;
14760;SDS011;7472;45.396;5.272;2022-09-01T04:52:38;8.82;;;5.18;;
14760;SDS011;7472;45.396;5.272;2022-09-01T04:55:09;8.55;;;5.70;;
14760;SDS011;7472;45.396;5.272;2022-09-01T04:57:41;6.43;;;5.82;;
14760;SDS011;7472;45.396;5.272;2022-09-01T05:00:12;6.65;;;6.03;;
14760;SDS011;7472;45.396;5.272;2022-09-01T05:02:47;6.40;;;5.80;;
14760;SDS011;7472;45.396;5.272;2022-09-01T05:05:16;6.13;;;5.45;;
14760;SDS011;7472;45.396;5.272;2022-09-01T05:07:43;8.13;;;6.10;;
14760;SDS011;7472;45.396;5.272;2022-09-01T05:10:12;6.72;;;5.85;;
14760;SDS011;7472;45.396;5.272;2022-09-01T05:12:39;6.43;;;5.88;;
14760;SDS011;7472;45.396;5.272;2022-09-01T05:15:10;7.88;;;6.45;;
14760;SDS011;7472;45.396;5.272;2022-09-01T05:17:38;6.75;;;6.13;;
14760;SDS011;7472;45.396;5.272;2022-09-01T05:20:06;7.00;;;6.35;;
14760;SDS011;7472;45.396;5.272;2022-09-01T05:22:34;6.55;;;5.78;;
14760;SDS011;7472;45.396;5.272;2022-09-01T05:25:05;6.88;;;6.15;;
14760;SDS011;7472;45.396;5.272;2022-09-01T05:27:40;6.70;;;5.45;;
14760;SDS011;7472;45.396;5.272;2022-09-01T05:30:09;6.88;;;6.03;;
14760;SDS011;7472;45.396;5.272;2022-09-01T05:32:36;6.75;;;6.10;;
14760;SDS011;7472;45.396;5.272;2022-09-01T05:35:04;6.93;;;5.70;;
14760;SDS011;7472;45.396;5.272;2022-09-01T05:37:33;6.15;;;5.55;;
14760;SDS011;7472;45.396;5.272;2022-09-01T05:40:03;8.20;;;5.75;;
14760;SDS011;7472;45.396;5.272;2022-09-01T05:42:30;6.30;;;5.80;;
14760;SDS011;7472;45.396;5.272;2022-09-01T05:44:59;6.35;;;5.55;;
14760;SDS011;7472;45.396;5.272;2022-09-01T05:47:28;6.93;;;5.75;;
14760;SDS011;7472;45.396;5.272;2022-09-01T05:50:01;5.03;;;4.60;;
14760;SDS011;7472;45.396;5.272;2022-09-01T05:52:30;5.68;;;5.20;;
14760;SDS011;7472;45.396;5.272;2022-09-01T05:54:59;7.47;;;5.78;;
14760;SDS011;7472;45.396;5.272;2022-09-01T05:57:26;7.18;;;6.53;;
14760;SDS011;7472;45.396;5.272;2022-09-01T05:59:54;6.47;;;5.97;;
14760;SDS011;7472;45.396;5.272;2022-09-01T06:02:23;7.10;;;5.45;;
14760;SDS011;7472;45.396;5.272;2022-09-01T06:04:51;5.45;;;4.97;;
14760;SDS011;7472;45.396;5.272;2022-09-01T06:07:21;6.43;;;5.82;;
14760;SDS011;7472;45.396;5.272;2022-09-01T06:09:52;6.45;;;5.82;;
14760;SDS011;7472;45.396;5.272;2022-09-01T06:12:20;6.07;;;5.38;;
14760;SDS011;7472;45.396;5.272;2022-09-01T06:14:49;5.32;;;4.90;;
14760;SDS011;7472;45.396;5.272;2022-09-01T06:17:17;5.63;;;5.13;;
14760;SDS011;7472;45.396;5.272;2022-09-01T06:19:50;5.40;;;4.88;;
14760;SDS011;7472;45.396;5.272;2022-09-01T06:22:19;6.00;;;5.40;;
14760;SDS011;7472;45.396;5.272;2022-09-01T06:24:48;5.63;;;5.13;;
14760;SDS011;7472;45.396;5.272;2022-09-01T06:27:16;7.15;;;5.20;;
14760;SDS011;7472;45.396;5.272;2022-09-01T06:29:44;6.95;;;5.00;;
14760;SDS011;7472;45.396;5.272;2022-09-01T06:32:18;5.95;;;5.40;;
14760;SDS011;7472;45.396;5.272;2022-09-01T06:34:45;4.80;;;4.40;;
14760;SDS011;7472;45.396;5.272;2022-09-01T06:37:17;7.82;;;4.93;;
14760;SDS011;7472;45.396;5.272;2022-09-01T06:39:47;5.95;;;5.45;;
14760;SDS011;7472;45.396;5.272;2022-09-01T06:42:15;5.47;;;4.90;;
14760;SDS011;7472;45.396;5.272;2022-09-01T06:44:43;5.93;;;5.18;;
14760;SDS011;7472;45.396;5.272;2022-09-01T06:47:11;5.28;;;4.50;;
14760;SDS011;7472;45.396;5.272;2022-09-01T06:49:39;4.97;;;4.50;;
14760;SDS011;7472;45.396;5.272;2022-09-01T06:52:07;6.22;;;5.00;;
14760;SDS011;7472;45.396;5.272;2022-09-01T06:54:37;8.65;;;4.80;;
14760;SDS011;7472;45.396;5.272;2022-09-01T06:57:07;7.15;;;4.65;;
14760;SDS011;7472;45.396;5.272;2022-09-01T06:59:35;6.45;;;5.50;;
14760;SDS011;7472;45.396;5.272;2022-09-01T07:02:02;8.30;;;5.22;;
14760;SDS011;7472;45.396;5.272;2022-09-01T07:04:30;7.03;;;5.05;;
14760;SDS011;7472;45.396;5.272;2022-09-01T07:06:58;7.18;;;5.45;;
14760;SDS011;7472;45.396;5.272;2022-09-01T07:09:26;5.18;;;4.68;;
14760;SDS011;7472;45.396;5.272;2022-09-01T07:11:55;6.85;;;4.85;;
14760;SDS011;7472;45.396;5.272;2022-09-01T07:14:23;5.63;;;5.10;;
14760;SDS011;7472;45.396;5.272;2022-09-01T07:16:51;6.03;;;5.32;;
14760;SDS011;7472;45.396;5.272;2022-09-01T07:19:18;6.97;;;6.07;;
14760;SDS011;7472;45.396;5.272;2022-09-01T07:21:45;5.50;;;5.00;;
14760;SDS011;7472;45.396;5.272;2022-09-01T07:24:13;5.03;;;4.63;;
14760;SDS011;7472;45.396;5.272;2022-09-01T07:26:42;7.57;;;5.28;;
14760;SDS011;7472;45.396;5.272;2022-09-01T07:29:15;6.45;;;5.32;;
14760;SDS011;7472;45.396;5.272;2022-09-01T07:31:45;8.00;;;6.15;;
14760;SDS011;7472;45.396;5.272;2022-09-01T07:34:13;5.88;;;5.38;;
14760;SDS011;7472;45.396;5.272;2022-09-01T07:36:41;7.03;;;5.82;;
14760;SDS011;7472;45.396;5.272;2022-09-01T07:39:09;7.45;;;5.40;;
14760;SDS011;7472;45.396;5.272;2022-09-01T07:41:38;6.20;;;5.65;;
14760;SDS011;7472;45.396;5.272;2022-09-01T07:44:06;5.57;;;5.07;;
14760;SDS011;7472;45.396;5.272;2022-09-01T07:46:39;7.20;;;5.78;;
14760;SDS011;7472;45.396;5.272;2022-09-01T07:49:07;8.65;;;4.85;;
14760;SDS011;7472;45.396;5.272;2022-09-01T07:51:34;6.00;;;5.50;;
14760;SDS011;7472;45.396;5.272;2022-09-01T07:54:02;5.53;;;5.03;;
14760;SDS011;7472;45.396;5.272;2022-09-01T07:56:29;6.55;;;5.95;;
14760;SDS011;7472;45.396;5.272;2022-09-01T07:58:57;7.78;;;5.22;;
14760;SDS011;7472;45.396;5.272;2022-09-01T08:01:25;8.35;;;5.10;;
14760;SDS011;7472;45.396;5.272;2022-09-01T08:03:55;4.97;;;4.57;;
14760;SDS011;7472;45.396;5.272;2022-09-01T08:06:23;5.78;;;4.18;;
14760;SDS011;7472;45.396;5.272;2022-09-01T08:08:52;8.02;;;4.85;;
14760;SDS011;7472;45.396;5.272;2022-09-01T08:11:20;5.18;;;4.78;;
14760;SDS011;7472;45.396;5.272;2022-09-01T08:13:49;5.00;;;4.60;;
14760;SDS011;7472;45.396;5.272;2022-09-01T08:16:17;5.95;;;4.30;;
14760;SDS011;7472;45.396;5.272;2022-09-01T08:18:44;8.13;;;3.97;;
14760;SDS011;7472;45.396;5.272;2022-09-01T08:21:14;6.15;;;4.38;;
14760;SDS011;7472;45.396;5.272;2022-09-01T08:23:41;4.45;;;4.05;;
14760;SDS011;7472;45.396;5.272;2022-09-01T08:26:09;4.88;;;4.38;;
14760;SDS011;7472;45.396;5.272;2022-09-01T08:28:37;5.05;;;4.32;;
14760;SDS011;7472;45.396;5.272;2022-09-01T08:31:05;9.45;;;4.22;;
14760;SDS011;7472;45.396;5.272;2022-09-01T08:33:32;4.28;;;3.60;;
14760;SDS011;7472;45.396;5.272;2022-09-01T08:36:00;5.20;;;3.50;;
14760;SDS011;7472;45.396;5.272;2022-09-01T08:38:29;4.43;;;3.97;;
14760;SDS011;7472;45.396;5.272;2022-09-01T08:40:57;3.60;;;3.30;;
14760;SDS011;7472;45.396;5.272;2022-09-01T08:43:34;4.60;;;3.80;;
14760;SDS011;7472;45.396;5.272;2022-09-01T08:46:06;8.73;;;4.28;;
14760;SDS011;7472;45.396;5.272;2022-09-01T08:48:36;5.22;;;4.50;;
14760;SDS011;7472;45.396;5.272;2022-09-01T08:51:09;3.97;;;3.50;;
14760;SDS011;7472;45.396;5.272;2022-09-01T08:53:42;6.55;;;3.42;;
14760;SDS011;7472;45.396;5.272;2022-09-01T08:56:10;3.83;;;3.53;;
14760;SDS011;7472;45.396;5.272;2022-09-01T08:58:38;4.55;;;3.78;;
14760;SDS011;7472;45.396;5.272;2022-09-01T09:01:07;4.32;;;3.92;;
14760;SDS011;7472;45.396;5.272;2022-09-01T09:03:37;5.50;;;3.90;;
14760;SDS011;7472;45.396;5.272;2022-09-01T09:06:12;4.57;;;4.18;;
14760;SDS011;7472;45.396;5.272;2022-09-01T09:08:50;5.07;;;4.10;;
14760;SDS011;7472;45.396;5.272;2022-09-01T09:11:33;3.85;;;3.55;;
14760;SDS011;7472;45.396;5.272;2022-09-01T09:14:04;4.38;;;4.07;;
14760;SDS011;7472;45.396;5.272;2022-09-01T09:16:36;4.18;;;3.58;;
14760;SDS011;7472;45.396;5.272;2022-09-01T09:19:08;3.45;;;3.15;;
14760;SDS011;7472;45.396;5.272;2022-09-01T09:21:37;3.88;;;3.47;;
14760;SDS011;7472;45.396;5.272;2022-09-01T09:24:07;4.15;;;3.40;;
14760;SDS011;7472;45.396;5.272;2022-09-01T09:26:36;3.70;;;3.22;;
14760;SDS011;7472;45.396;5.272;2022-09-01T09:29:03;3.75;;;3.28;;
14760;SDS011;7472;45.396;5.272;2022-09-01T09:31:31;4.40;;;3.72;;
14760;SDS011;7472;45.396;5.272;2022-09-01T09:33:59;26.20;;;5.57;;
14760;SDS011;7472;45.396;5.272;2022-09-01T09:36:28;13.88;;;4.32;;
14760;SDS011;7472;45.396;5.272;2022-09-01T09:39:02;3.95;;;3.28;;
14760;SDS011;7472;45.396;5.272;2022-09-01T09:41:31;3.58;;;3.28;;
14760;SDS011;7472;45.396;5.272;2022-09-01T09:43:59;3.42;;;3.15;;
14760;SDS011;7472;45.396;5.272;2022-09-01T09:46:32;3.70;;;3.40;;
14760;SDS011;7472;45.396;5.272;2022-09-01T09:51:49;4.15;;;3.75;;
14760;SDS011;7472;45.396;5.272;2022-09-01T09:54:19;5.65;;;3.30;;
14760;SDS011;7472;45.396;5.272;2022-09-01T09:56:48;5.15;;;3.85;;
14760;SDS011;7472;45.396;5.272;2022-09-01T09:59:28;4.05;;;3.72;;
14760;SDS011;7472;45.396;5.272;2022-09-01T10:01:56;5.10;;;3.47;;
14760;SDS011;7472;45.396;5.272;2022-09-01T10:04:31;6.43;;;4.00;;
14760;SDS011;7472;45.396;5.272;2022-09-01T10:07:00;3.17;;;2.90;;
14760;SDS011;7472;45.396;5.272;2022-09-01T10:09:34;3.78;;;2.63;;
14760;SDS011;7472;45.396;5.272;2022-09-01T10:12:03;4.20;;;3.00;;
14760;SDS011;7472;45.396;5.272;2022-09-01T10:14:33;2.65;;;2.45;;
14760;SDS011;7472;45.396;5.272;2022-09-01T10:17:05;3.05;;;2.67;;
14760;SDS011;7472;45.396;5.272;2022-09-01T10:19:35;3.10;;;2.90;;
14760;SDS011;7472;45.396;5.272;2022-09-01T10:22:06;3.75;;;2.58;;
14760;SDS011;7472;45.396;5.272;2022-09-01T10:24:35;4.15;;;2.83;;
14760;SDS011;7472;45.396;5.272;2022-09-01T10:27:06;2.78;;;2.58;;
14760;SDS011;7472;45.396;5.272;2022-09-01T10:29:35;3.58;;;3.00;;
14760;SDS011;7472;45.396;5.272;2022-09-01T10:32:05;3.22;;;2.92;;
14760;SDS011;7472;45.396;5.272;2022-09-01T10:34:34;3.58;;;3.22;;
14760;SDS011;7472;45.396;5.272;2022-09-01T10:37:02;5.53;;;2.80;;
14760;SDS011;7472;45.396;5.272;2022-09-01T10:39:30;5.40;;;3.28;;
14760;SDS011;7472;45.396;5.272;2022-09-01T10:41:57;3.30;;;3.00;;
14760;SDS011;7472;45.396;5.272;2022-09-01T10:44:33;3.83;;;3.03;;
14760;SDS011;7472;45.396;5.272;2022-09-01T10:47:03;6.20;;;3.35;;
14760;SDS011;7472;45.396;5.272;2022-09-01T10:55:03;3.58;;;3.28;;
14760;SDS011;7472;45.396;5.272;2022-09-01T10:57:38;4.20;;;3.22;;
14760;SDS011;7472;45.396;5.272;2022-09-01T11:08:39;4.00;;;2.88;;
14760;SDS011;7472;45.396;5.272;2022-09-01T11:11:07;3.60;;;3.30;;
14760;SDS011;7472;45.396;5.272;2022-09-01T11:13:42;3.42;;;3.13;;
14760;SDS011;7472;45.396;5.272;2022-09-01T11:16:23;3.20;;;2.88;;
14760;SDS011;7472;45.396;5.272;2022-09-01T11:18:51;4.78;;;3.28;;
14760;SDS011;7472;45.396;5.272;2022-09-01T11:21:19;2.92;;;2.35;;
14760;SDS011;7472;45.396;5.272;2022-09-01T11:23:50;3.80;;;2.63;;
14760;SDS011;7472;45.396;5.272;2022-09-01T11:29:04;3.45;;;3.08;;
14760;SDS011;7472;45.396;5.272;2022-09-01T11:31:34;3.30;;;3.00;;
14760;SDS011;7472;45.396;5.272;2022-09-01T11:34:13;3.83;;;3.00;;
14760;SDS011;7472;45.396;5.272;2022-09-01T11:42:19;2.88;;;2.47;;
14760;SDS011;7472;45.396;5.272;2022-09-01T11:44:48;3.25;;;2.70;;
14760;SDS011;7472;45.396;5.272;2022-09-01T11:47:18;3.33;;;2.47;;
14760;SDS011;7472;45.396;5.272;2022-09-01T11:49:48;3.03;;;2.30;;
14760;SDS011;7472;45.396;5.272;2022-09-01T11:52:16;3.28;;;2.58;;
14760;SDS011;7472;45.396;5.272;2022-09-01T11:54:44;3.35;;;2.55;;
14760;SDS011;7472;45.396;5.272;2022-09-01T11:59:59;24.85;;;4.10;;
14760;SDS011;7472;45.396;5.272;2022-09-01T12:02:28;30.67;;;4.82;;
14760;SDS011;7472;45.396;5.272;2022-09-01T12:04:58;31.92;;;4.07;;
14760;SDS011;7472;45.396;5.272;2022-09-01T12:07:28;3.15;;;2.17;;
14760;SDS011;7472;45.396;5.272;2022-09-01T12:09:56;17.52;;;2.97;;
14760;SDS011;7472;45.396;5.272;2022-09-01T12:12:26;5.93;;;2.22;;
14760;SDS011;7472;45.396;5.272;2022-09-01T12:14:55;2.78;;;2.30;;
14760;SDS011;7472;45.396;5.272;2022-09-01T12:17:24;2.60;;;2.28;;
14760;SDS011;7472;45.396;5.272;2022-09-01T12:19:52;3.50;;;2.20;;
14760;SDS011;7472;45.396;5.272;2022-09-01T12:22:20;5.50;;;2.20;;
14760;SDS011;7472;45.396;5.272;2022-09-01T12:24:48;4.03;;;2.13;;
14760;SDS011;7472;45.396;5.272;2022-09-01T12:27:16;2.40;;;2.20;;
14760;SDS011;7472;45.396;5.272;2022-09-01T12:29:43;3.58;;;2.30;;
14760;SDS011;7472;45.396;5.272;2022-09-01T12:32:12;2.75;;;2.08;;
14760;SDS011;7472;45.396;5.272;2022-09-01T12:34:42;2.35;;;2.15;;
14760;SDS011;7472;45.396;5.272;2022-09-01T12:37:11;2.55;;;2.35;;
14760;SDS011;7472;45.396;5.272;2022-09-01T12:39:39;2.30;;;1.92;;
14760;SDS011;7472;45.396;5.272;2022-09-01T12:42:11;2.15;;;1.95;;
14760;SDS011;7472;45.396;5.272;2022-09-01T12:44:43;3.95;;;1.50;;
14760;SDS011;7472;45.396;5.272;2022-09-01T12:47:12;2.35;;;2.15;;
14760;SDS011;7472;45.396;5.272;2022-09-01T12:49:42;2.53;;;2.22;;
14760;SDS011;7472;45.396;5.272;2022-09-01T12:52:13;3.95;;;2.00;;
14760;SDS011;7472;45.396;5.272;2022-09-01T12:54:44;2.60;;;2.40;;
14760;SDS011;7472;45.396;5.272;2022-09-01T12:57:19;65.80;;;7.15;;
14760;SDS011;7472;45.396;5.272;2022-09-01T13:00:03;4.72;;;2.47;;
14760;SDS011;7472;45.396;5.272;2022-09-01T13:02:32;3.33;;;2.08;;
14760;SDS011;7472;45.396;5.272;2022-09-01T13:07:44;3.15;;;1.98;;
14760;SDS011;7472;45.396;5.272;2022-09-01T13:10:11;3.70;;;2.03;;
14760;SDS011;7472;45.396;5.272;2022-09-01T13:12:39;1.95;;;1.80;;
14760;SDS011;7472;45.396;5.272;2022-09-01T13:15:07;2.67;;;2.47;;
14760;SDS011;7472;45.396;5.272;2022-09-01T13:17:35;4.93;;;2.00;;
14760;SDS011;7472;45.396;5.272;2022-09-01T13:20:03;2.00;;;1.90;;
14760;SDS011;7472;45.396;5.272;2022-09-01T13:22:30;2.10;;;2.00;;
14760;SDS011;7472;45.396;5.272;2022-09-01T13:25:00;2.65;;;2.45;;
14760;SDS011;7472;45.396;5.272;2022-09-01T13:27:29;3.50;;;1.85;;
14760;SDS011;7472;45.396;5.272;2022-09-01T13:29:57;2.90;;;1.85;;
14760;SDS011;7472;45.396;5.272;2022-09-01T13:32:24;3.55;;;2.40;;
14760;SDS011;7472;45.396;5.272;2022-09-01T13:34:51;2.22;;;2.03;;
14760;SDS011;7472;45.396;5.272;2022-09-01T13:37:20;2.10;;;1.90;;
14760;SDS011;7472;45.396;5.272;2022-09-01T13:39:47;2.08;;;1.98;;
14760;SDS011;7472;45.396;5.272;2022-09-01T13:42:16;2.53;;;2.08;;
14760;SDS011;7472;45.396;5.272;2022-09-01T13:44:43;2.10;;;1.90;;
14760;SDS011;7472;45.396;5.272;2022-09-01T13:47:11;2.33;;;2.13;;
14760;SDS011;7472;45.396;5.272;2022-09-01T13:49:39;5.00;;;2.08;;
14760;SDS011;7472;45.396;5.272;2022-09-01T13:52:06;2.10;;;1.80;;
14760;SDS011;7472;45.396;5.272;2022-09-01T13:54:33;2.33;;;2.13;;
14760;SDS011;7472;45.396;5.272;2022-09-01T13:57:01;5.75;;;2.38;;
14760;SDS011;7472;45.396;5.272;2022-09-01T13:59:30;2.05;;;1.95;;
14760;SDS011;7472;45.396;5.272;2022-09-01T14:01:57;2.40;;;2.20;;
14760;SDS011;7472;45.396;5.272;2022-09-01T14:04:26;2.05;;;1.95;;
14760;SDS011;7472;45.396;5.272;2022-09-01T14:06:54;2.95;;;2.03;;
14760;SDS011;7472;45.396;5.272;2022-09-01T14:09:23;2.67;;;2.15;;
14760;SDS011;7472;45.396;5.272;2022-09-01T14:11:51;2.40;;;2.20;;
14760;SDS011;7472;45.396;5.272;2022-09-01T14:14:19;2.65;;;2.30;;
14760;SDS011;7472;45.396;5.272;2022-09-01T14:16:48;2.70;;;2.05;;
14760;SDS011;7472;45.396;5.272;2022-09-01T14:19:15;3.50;;;2.60;;
14760;SDS011;7472;45.396;5.272;2022-09-01T14:21:43;3.53;;;2.58;;
14760;SDS011;7472;45.396;5.272;2022-09-01T14:24:11;2.55;;;2.35;;
14760;SDS011;7472;45.396;5.272;2022-09-01T14:26:39;3.03;;;2.40;;
14760;SDS011;7472;45.396;5.272;2022-09-01T14:29:07;2.00;;;1.80;;
14760;SDS011;7472;45.396;5.272;2022-09-01T14:31:34;2.58;;;1.70;;
14760;SDS011;7472;45.396;5.272;2022-09-01T14:34:03;2.10;;;1.90;;
14760;SDS011;7472;45.396;5.272;2022-09-01T14:36:30;6.53;;;2.10;;
14760;SDS011;7472;45.396;5.272;2022-09-01T14:38:58;2.17;;;1.85;;
14760;SDS011;7472;45.396;5.272;2022-09-01T14:41:25;1.90;;;1.80;;
14760;SDS011;7472;45.396;5.272;2022-09-01T14:43:53;2.90;;;2.13;;
14760;SDS011;7472;45.396;5.272;2022-09-01T14:46:21;2.40;;;2.20;;
14760;SDS011;7472;45.396;5.272;2022-09-01T14:48:49;2.00;;;1.67;;
14760;SDS011;7472;45.396;5.272;2022-09-01T14:51:19;2.55;;;1.50;;
14760;SDS011;7472;45.396;5.272;2022-09-01T14:53:48;2.03;;;1.80;;
14760;SDS011;7472;45.396;5.272;2022-09-01T14:56:15;2.00;;;1.90;;
14760;SDS011;7472;45.396;5.272;2022-09-01T14:58:43;2.35;;;2.00;;
14760;SDS011;7472;45.396;5.272;2022-09-01T15:01:12;4.10;;;1.98;;
14760;SDS011;7472;45.396;5.272;2022-09-01T15:03:40;4.38;;;1.80;;
14760;SDS011;7472;45.396;5.272;2022-09-01T15:06:10;2.53;;;1.60;;
14760;SDS011;7472;45.396;5.272;2022-09-01T15:08:39;2.80;;;2.00;;
14760;SDS011;7472;45.396;5.272;2022-09-01T15:11:07;2.10;;;1.88;;
14760;SDS011;7472;45.396;5.272;2022-09-01T15:13:35;1.98;;;1.80;;
14760;SDS011;7472;45.396;5.272;2022-09-01T15:16:03;6.22;;;2.17;;
14760;SDS011;7472;45.396;5.272;2022-09-01T15:18:30;3.20;;;2.00;;
14760;SDS011;7472;45.396;5.272;2022-09-01T15:20:58;3.83;;;2.20;;
14760;SDS011;7472;45.396;5.272;2022-09-01T15:23:25;2.00;;;1.80;;
14760;SDS011;7472;45.396;5.272;2022-09-01T15:25:54;2.20;;;1.90;;
14760;SDS011;7472;45.396;5.272;2022-09-01T15:28:23;2.05;;;1.88;;
14760;SDS011;7472;45.396;5.272;2022-09-01T15:30:50;1.75;;;1.65;;
14760;SDS011;7472;45.396;5.272;2022-09-01T15:33:18;2.20;;;2.00;;
14760;SDS011;7472;45.396;5.272;2022-09-01T15:35:45;2.25;;;1.75;;
14760;SDS011;7472;45.396;5.272;2022-09-01T15:38:13;2.30;;;1.70;;
14760;SDS011;7472;45.396;5.272;2022-09-01T15:40:41;3.70;;;1.77;;
14760;SDS011;7472;45.396;5.272;2022-09-01T15:43:10;3.30;;;1.73;;